createdAt,value
2022-10-19T00:01:07.539Z,3.92
2022-10-19T00:03:36.059Z,4.35
2022-10-19T00:06:18.467Z,4.13
2022-10-19T00:08:45.753Z,4.00
2022-10-19T00:11:13.432Z,3.80
2022-10-19T00:13:40.758Z,3.65
2022-10-19T00:16:11.607Z,3.35
2022-10-19T00:18:39.131Z,3.47
2022-10-19T00:21:07.584Z,3.45
2022-10-19T00:23:34.889Z,3.43
2022-10-19T00:26:02.240Z,4.15
2022-10-19T00:28:29.523Z,3.13
2022-10-19T00:30:57.135Z,2.85
2022-10-19T00:33:24.552Z,3.42
2022-10-19T00:35:52.943Z,3.33
2022-10-19T00:38:21.630Z,2.83
2022-10-19T00:40:49.483Z,3.90
2022-10-19T00:43:22.037Z,3.15
2022-10-19T00:45:49.445Z,3.58
2022-10-19T00:48:25.711Z,3.10
2022-10-19T00:50:54.543Z,3.28
2022-10-19T00:53:21.941Z,3.40
2022-10-19T00:55:49.253Z,3.20
2022-10-19T00:58:16.518Z,2.92
2022-10-19T01:00:43.727Z,3.03
2022-10-19T01:03:11.957Z,3.20
2022-10-19T01:05:39.194Z,2.70
2022-10-19T01:08:07.547Z,2.40
2022-10-19T01:11:06.456Z,2.78
2022-10-19T01:13:56.211Z,2.47
2022-10-19T01:16:49.836Z,2.55
2022-10-19T01:19:40.243Z,2.92
2022-10-19T01:22:36.326Z,2.97
2022-10-19T01:25:36.495Z,2.38
2022-10-19T01:28:11.642Z,2.47
2022-10-19T01:31:03.336Z,2.53
2022-10-19T01:33:38.428Z,2.40
2022-10-19T01:36:16.708Z,2.33
2022-10-19T01:38:57.835Z,3.17
2022-10-19T01:41:35.366Z,2.28
2022-10-19T01:44:14.349Z,2.60
2022-10-19T01:46:45.120Z,2.75
2022-10-19T01:49:16.511Z,2.75
2022-10-19T01:51:47.767Z,2.55
2022-10-19T01:54:16.917Z,2.00
2022-10-19T01:56:45.839Z,2.05
2022-10-19T01:59:13.370Z,2.47
2022-10-19T02:01:43.969Z,2.28
2022-10-19T02:04:12.598Z,2.78
2022-10-19T02:06:39.993Z,2.85
2022-10-19T02:09:07.342Z,2.65
2022-10-19T02:11:35.535Z,2.55
2022-10-19T02:14:07.604Z,2.28
2022-10-19T02:16:39.937Z,2.35
2022-10-19T02:19:08.670Z,2.83
2022-10-19T02:21:35.925Z,2.40
2022-10-19T02:24:03.058Z,1.95
2022-10-19T02:26:30.321Z,2.60
2022-10-19T02:28:57.534Z,2.25
2022-10-19T02:31:25.083Z,2.50
2022-10-19T02:33:52.442Z,1.90
2022-10-19T02:36:19.595Z,1.83
2022-10-19T02:38:46.782Z,2.63
2022-10-19T02:41:28.508Z,2.38
2022-10-19T02:44:01.400Z,2.13
2022-10-19T02:46:42.705Z,2.50
2022-10-19T02:49:11.042Z,1.95
2022-10-19T02:51:40.771Z,1.92
2022-10-19T02:54:09.391Z,1.98
2022-10-19T02:56:36.601Z,2.60
2022-10-19T02:59:04.375Z,1.95
2022-10-19T03:01:31.546Z,2.08
2022-10-19T03:03:58.771Z,2.88
2022-10-19T03:06:25.941Z,2.08
2022-10-19T03:08:53.086Z,2.28
2022-10-19T03:11:20.267Z,2.15
2022-10-19T03:16:19.509Z,2.28
2022-10-19T03:18:49.095Z,2.17
2022-10-19T03:21:16.312Z,2.10
2022-10-19T03:23:43.439Z,1.88
2022-10-19T03:26:14.398Z,2.15
2022-10-19T03:28:42.427Z,2.30
2022-10-19T03:31:09.869Z,2.75
2022-10-19T03:33:37.012Z,2.30
2022-10-19T03:36:34.574Z,1.80
2022-10-19T03:39:04.675Z,1.95
2022-10-19T03:41:34.207Z,1.90
2022-10-19T03:44:01.462Z,2.08
2022-10-19T03:46:28.667Z,1.90
2022-10-19T03:48:55.802Z,2.22
2022-10-19T03:51:25.787Z,2.00
2022-10-19T03:53:54.487Z,2.67
2022-10-19T03:56:23.576Z,1.85
2022-10-19T03:58:51.851Z,1.80
2022-10-19T04:01:21.495Z,1.90
2022-10-19T04:03:52.822Z,1.65
2022-10-19T04:06:22.053Z,1.65
2022-10-19T04:08:50.351Z,1.65
2022-10-19T04:11:18.828Z,2.08
2022-10-19T04:13:49.407Z,1.80
2022-10-19T04:16:17.080Z,1.63
2022-10-19T04:18:44.241Z,1.67
2022-10-19T04:21:22.946Z,1.35
2022-10-19T04:23:51.334Z,1.70
2022-10-19T04:26:19.064Z,1.60
2022-10-19T04:28:46.328Z,1.95
2022-10-19T04:31:13.845Z,1.90
2022-10-19T04:33:41.657Z,1.40
2022-10-19T04:36:12.804Z,1.38
2022-10-19T04:38:40.052Z,1.73
2022-10-19T04:41:10.007Z,1.70
2022-10-19T04:43:37.356Z,1.60
2022-10-19T04:46:06.149Z,1.90
2022-10-19T04:48:35.224Z,2.10
2022-10-19T04:51:02.769Z,1.48
2022-10-19T04:53:30.087Z,1.35
2022-10-19T04:55:57.246Z,1.40
2022-10-19T04:58:24.688Z,1.40
2022-10-19T05:00:51.894Z,1.40
2022-10-19T05:03:19.105Z,1.40
2022-10-19T05:05:46.256Z,1.65
2022-10-19T05:08:13.405Z,1.67
2022-10-19T05:10:44.213Z,1.52
2022-10-19T05:13:14.161Z,2.55
2022-10-19T05:15:41.334Z,1.55
2022-10-19T05:18:08.496Z,1.52
2022-10-19T05:20:35.648Z,1.55
2022-10-19T05:23:06.298Z,1.63
2022-10-19T05:25:34.582Z,2.15
2022-10-19T05:28:01.719Z,1.40
2022-10-19T05:30:28.871Z,1.85
2022-10-19T05:32:56.024Z,1.35
2022-10-19T05:35:23.273Z,1.42
2022-10-19T05:37:55.215Z,1.40
2022-10-19T05:40:22.376Z,1.60
2022-10-19T05:42:49.511Z,1.27
2022-10-19T05:45:16.751Z,1.27
2022-10-19T05:47:43.960Z,1.17
2022-10-19T05:50:11.153Z,1.60
2022-10-19T05:52:38.305Z,1.23
2022-10-19T05:55:05.913Z,1.75
2022-10-19T05:57:33.776Z,2.13
2022-10-19T06:00:01.116Z,2.55
2022-10-19T06:02:28.294Z,2.45
2022-10-19T06:04:55.429Z,2.15
2022-10-19T06:07:22.649Z,1.98
2022-10-19T06:09:49.800Z,1.60
2022-10-19T06:12:22.861Z,2.30
2022-10-19T06:14:52.170Z,1.75
2022-10-19T06:17:19.385Z,1.80
2022-10-19T06:19:46.528Z,2.20
2022-10-19T06:22:13.688Z,3.30
2022-10-19T06:24:40.851Z,2.88
2022-10-19T06:27:08.167Z,2.45
2022-10-19T06:29:36.067Z,2.65
2022-10-19T06:32:03.215Z,2.38
2022-10-19T06:34:30.488Z,2.63
2022-10-19T06:36:57.700Z,2.60
2022-10-19T06:39:24.887Z,1.90
2022-10-19T06:41:52.199Z,2.65
2022-10-19T06:44:19.567Z,2.70
2022-10-19T06:46:46.738Z,2.83
2022-10-19T06:49:14.568Z,2.25
2022-10-19T06:51:41.928Z,1.65
2022-10-19T06:54:09.066Z,1.33
2022-10-19T06:56:36.352Z,1.00
2022-10-19T06:59:03.665Z,1.33
2022-10-19T07:01:30.999Z,1.00
2022-10-19T07:03:58.177Z,1.85
2022-10-19T07:06:27.791Z,1.85
2022-10-19T07:08:55.027Z,1.05
2022-10-19T07:11:22.749Z,1.15
2022-10-19T07:13:50.204Z,0.95
2022-10-19T07:16:21.329Z,0.90
2022-10-19T07:18:50.084Z,1.13
2022-10-19T07:21:18.339Z,1.40
2022-10-19T07:23:47.368Z,0.88
2022-10-19T07:26:17.197Z,1.27
2022-10-19T07:28:46.955Z,1.10
2022-10-19T07:31:17.900Z,1.08
2022-10-19T07:33:45.383Z,1.58
2022-10-19T07:36:13.872Z,1.40
2022-10-19T07:38:41.385Z,1.30
2022-10-19T07:41:12.675Z,0.80
2022-10-19T07:43:40.426Z,0.77
2022-10-19T07:46:10.486Z,1.10
2022-10-19T07:48:37.889Z,1.23
2022-10-19T07:51:07.043Z,0.70
2022-10-19T07:53:34.684Z,0.75
2022-10-19T07:56:07.056Z,1.50
2022-10-19T07:58:34.523Z,1.08
2022-10-19T08:01:03.361Z,0.82
2022-10-19T08:04:14.329Z,0.98
2022-10-19T08:06:19.183Z,1.00
2022-10-19T08:08:47.794Z,1.10
2022-10-19T08:11:35.646Z,0.80
2022-10-19T08:14:03.586Z,1.65
2022-10-19T08:16:42.064Z,0.88
2022-10-19T08:19:12.536Z,0.93
2022-10-19T08:21:41.489Z,1.15
2022-10-19T08:24:09.029Z,1.13
2022-10-19T08:26:38.225Z,0.73
2022-10-19T08:29:13.439Z,0.80
2022-10-19T08:31:40.994Z,1.00
2022-10-19T08:34:12.012Z,0.82
2022-10-19T08:36:39.433Z,0.80
2022-10-19T08:39:08.778Z,0.70
2022-10-19T08:44:42.817Z,0.75
2022-10-19T08:47:47.802Z,0.75
2022-10-19T08:50:23.650Z,0.75
2022-10-19T08:52:55.346Z,1.05
2022-10-19T08:55:39.180Z,0.95
2022-10-19T08:58:32.314Z,1.10
2022-10-19T09:01:11.487Z,1.00
2022-10-19T09:06:50.306Z,0.88
2022-10-19T09:09:19.486Z,0.68
2022-10-19T09:11:53.090Z,1.15
2022-10-19T09:14:38.758Z,0.75
2022-10-19T09:17:17.136Z,0.93
2022-10-19T09:19:44.402Z,1.00
2022-10-19T09:22:28.444Z,1.30
2022-10-19T09:25:00.534Z,0.90
2022-10-19T09:27:39.251Z,0.90
2022-10-19T09:30:21.240Z,1.10
2022-10-19T09:32:50.651Z,1.10
2022-10-19T09:35:34.191Z,1.50
2022-10-19T09:38:01.597Z,1.02
2022-10-19T09:40:30.681Z,1.10
2022-10-19T09:42:59.146Z,1.20
2022-10-19T09:46:09.622Z,1.07
2022-10-19T09:48:51.956Z,1.25
2022-10-19T09:51:19.751Z,1.30
2022-10-19T09:53:51.502Z,1.20
2022-10-19T09:56:21.236Z,1.38
2022-10-19T09:58:50.552Z,1.30
2022-10-19T10:04:16.061Z,1.00
2022-10-19T10:06:44.823Z,0.93
2022-10-19T10:09:21.418Z,1.80
2022-10-19T10:11:50.682Z,1.35
2022-10-19T10:16:56.170Z,1.05
2022-10-19T10:19:28.659Z,1.60
2022-10-19T10:21:57.825Z,1.55
2022-10-19T10:24:27.246Z,1.60
2022-10-19T10:27:05.773Z,1.40
2022-10-19T10:29:35.141Z,0.90
2022-10-19T10:32:20.588Z,1.20
2022-10-19T10:34:53.841Z,1.15
2022-10-19T10:37:41.531Z,1.30
2022-10-19T10:40:23.950Z,1.42
2022-10-19T10:42:53.625Z,1.20
2022-10-19T10:45:29.551Z,1.25
2022-10-19T10:47:57.870Z,1.40
2022-10-19T10:50:34.592Z,1.20
2022-10-19T10:53:30.926Z,1.25
2022-10-19T10:55:58.329Z,1.17
2022-10-19T10:58:47.864Z,1.20
2022-10-19T11:01:23.136Z,2.10
2022-10-19T11:04:14.413Z,1.08
2022-10-19T11:06:51.799Z,1.40
2022-10-19T11:09:36.194Z,1.60
2022-10-19T11:12:05.662Z,1.10
2022-10-19T11:14:42.755Z,1.10
2022-10-19T11:17:18.553Z,1.33
2022-10-19T11:19:46.381Z,1.23
2022-10-19T11:22:32.456Z,1.35
2022-10-19T11:25:19.591Z,0.95
2022-10-19T11:28:20.657Z,0.70
2022-10-19T11:31:06.896Z,1.10
2022-10-19T11:34:00.281Z,1.10
2022-10-19T11:36:51.741Z,0.90
2022-10-19T11:40:02.429Z,1.00
2022-10-19T11:42:53.645Z,0.90
2022-10-19T11:45:42.726Z,1.10
2022-10-19T11:48:54.946Z,1.08
2022-10-19T11:51:39.418Z,0.70
2022-10-19T11:54:29.507Z,0.90
2022-10-19T11:57:16.422Z,0.90
2022-10-19T12:00:13.898Z,0.75
2022-10-19T12:03:07.798Z,1.00
2022-10-19T12:05:54.429Z,0.70
2022-10-19T12:08:58.080Z,0.90
2022-10-19T12:11:47.441Z,1.20
2022-10-19T12:14:26.785Z,1.50
2022-10-19T12:17:00.173Z,0.90
2022-10-19T12:19:36.054Z,0.93
2022-10-19T12:22:04.791Z,1.00
2022-10-19T12:24:33.486Z,1.02
2022-10-19T12:27:01.429Z,0.73
2022-10-19T12:29:34.412Z,0.80
2022-10-19T12:32:03.259Z,0.90
2022-10-19T12:34:33.484Z,0.90
2022-10-19T12:37:12.196Z,0.77
2022-10-19T12:40:17.191Z,0.82
2022-10-19T12:42:53.012Z,0.70
2022-10-19T12:45:30.947Z,1.13
2022-10-19T12:48:14.268Z,0.68
2022-10-19T12:50:50.867Z,1.27
2022-10-19T12:53:31.541Z,1.45
2022-10-19T12:56:20.158Z,0.98
2022-10-19T12:58:54.628Z,1.45
2022-10-19T13:01:33.053Z,1.00
2022-10-19T13:04:12.214Z,0.50
2022-10-19T13:09:22.923Z,0.60
2022-10-19T13:12:19.383Z,0.60
2022-10-19T13:15:02.124Z,0.60
2022-10-19T13:17:40.648Z,0.43
2022-10-19T13:20:16.641Z,0.88
2022-10-19T13:23:00.455Z,0.60
2022-10-19T13:25:29.463Z,0.75
2022-10-19T13:28:06.969Z,1.02
2022-10-19T13:30:38.214Z,0.93
2022-10-19T13:33:28.991Z,1.10
2022-10-19T13:35:59.189Z,0.50
2022-10-19T13:38:33.471Z,0.90
2022-10-19T13:41:19.060Z,0.80
2022-10-19T13:43:55.404Z,0.60
2022-10-19T13:46:32.793Z,0.60
2022-10-19T13:49:12.027Z,0.40
2022-10-19T13:54:35.770Z,0.70
2022-10-19T13:57:47.801Z,0.70
2022-10-19T14:00:22.185Z,0.88
2022-10-19T14:03:05.520Z,0.80
2022-10-19T14:05:56.979Z,0.93
2022-10-19T14:08:53.232Z,0.90
2022-10-19T14:11:33.260Z,0.88
2022-10-19T14:14:13.446Z,0.70
2022-10-19T14:19:48.481Z,1.00
2022-10-19T14:22:34.014Z,0.80
2022-10-19T14:25:05.153Z,0.57
2022-10-19T14:27:33.255Z,1.50
2022-10-19T14:30:03.812Z,1.50
2022-10-19T14:32:33.840Z,2.03
2022-10-19T14:35:06.087Z,1.00
2022-10-19T14:37:33.687Z,1.00
2022-10-19T14:40:29.384Z,0.50
2022-10-19T14:42:57.663Z,0.90
2022-10-19T14:45:28.456Z,0.88
2022-10-19T14:48:01.076Z,1.35
2022-10-19T14:50:39.306Z,0.75
2022-10-19T14:53:34.350Z,0.80
2022-10-19T14:56:37.838Z,0.93
2022-10-19T14:59:20.385Z,0.52
2022-10-19T15:01:56.125Z,0.60
2022-10-19T15:04:27.684Z,0.73
2022-10-19T15:06:55.925Z,0.85
2022-10-19T15:09:47.709Z,1.05
2022-10-19T15:12:21.592Z,1.20
2022-10-19T15:14:49.189Z,1.45
2022-10-19T15:17:31.061Z,1.10
2022-10-19T15:20:01.135Z,1.15
2022-10-19T15:22:32.287Z,1.13
2022-10-19T15:25:02.316Z,1.10
2022-10-19T15:27:31.189Z,1.02
2022-10-19T15:30:27.068Z,1.10
2022-10-19T15:33:11.433Z,1.10
2022-10-19T15:35:40.716Z,1.23
2022-10-19T15:40:40.132Z,1.60
2022-10-19T15:43:34.765Z,1.98
2022-10-19T15:46:06.816Z,1.42
2022-10-19T15:49:04.448Z,1.92
2022-10-19T15:51:34.560Z,2.67
2022-10-19T15:54:06.828Z,1.20
2022-10-19T15:56:37.739Z,1.20
2022-10-19T15:59:10.165Z,1.63
2022-10-19T16:01:37.369Z,2.50
2022-10-19T16:04:04.748Z,3.13
2022-10-19T16:06:34.240Z,2.70
2022-10-19T16:09:02.439Z,3.25
2022-10-19T16:11:30.284Z,1.63
2022-10-19T16:13:57.752Z,1.73
2022-10-19T16:16:30.246Z,2.45
2022-10-19T16:18:58.111Z,1.60
2022-10-19T16:21:31.521Z,1.60
2022-10-19T16:23:58.701Z,1.92
2022-10-19T16:26:26.514Z,2.45
2022-10-19T16:28:55.030Z,2.75
2022-10-19T16:31:22.649Z,2.97
2022-10-19T16:33:50.041Z,3.28
2022-10-19T16:36:20.195Z,3.55
2022-10-19T16:38:47.703Z,3.60
2022-10-19T16:41:14.944Z,2.80
2022-10-19T16:43:42.138Z,2.83
2022-10-19T16:46:09.579Z,3.35
2022-10-19T16:48:37.864Z,5.78
2022-10-19T16:51:07.954Z,8.00
2022-10-19T16:53:36.484Z,11.02
2022-10-19T16:56:11.181Z,10.43
2022-10-19T16:58:39.808Z,28.70
2022-10-19T17:01:12.356Z,31.35
2022-10-19T17:03:39.719Z,25.63
2022-10-19T17:06:08.155Z,16.90
2022-10-19T17:08:53.047Z,12.10
2022-10-19T17:11:25.500Z,12.65
2022-10-19T17:13:54.856Z,13.52
2022-10-19T17:18:49.517Z,21.48
2022-10-19T17:21:19.947Z,17.88
2022-10-19T17:23:47.564Z,20.50
2022-10-19T17:26:14.843Z,17.70
2022-10-19T17:28:43.346Z,17.00
2022-10-19T17:31:13.073Z,16.60
2022-10-19T17:33:41.348Z,14.85
2022-10-19T17:36:11.325Z,16.48
2022-10-19T17:38:39.316Z,15.93
2022-10-19T17:41:13.770Z,15.45
2022-10-19T17:43:42.585Z,16.10
2022-10-19T17:46:11.255Z,14.18
2022-10-19T17:48:39.480Z,14.50
2022-10-19T17:51:13.786Z,17.88
2022-10-19T17:53:40.947Z,18.30
2022-10-19T17:56:08.622Z,18.15
2022-10-19T17:58:39.154Z,22.17
2022-10-19T18:01:07.877Z,16.30
2022-10-19T18:03:36.195Z,15.18
2022-10-19T18:06:10.808Z,15.60
2022-10-19T18:08:43.953Z,15.38
2022-10-19T18:11:13.635Z,15.15
2022-10-19T18:13:41.830Z,20.15
2022-10-19T18:16:15.435Z,15.93
2022-10-19T18:18:45.740Z,15.65
2022-10-19T18:21:14.704Z,14.75
2022-10-19T18:23:42.051Z,15.23
2022-10-19T18:26:12.286Z,15.70
2022-10-19T18:28:39.797Z,16.70
2022-10-19T18:31:15.389Z,17.30
2022-10-19T18:33:44.592Z,17.67
2022-10-19T18:36:11.983Z,14.75
2022-10-19T18:38:39.668Z,15.05
2022-10-19T18:46:19.510Z,18.73
2022-10-19T18:48:46.876Z,17.13
2022-10-19T18:51:15.478Z,14.90
2022-10-19T18:53:43.404Z,15.32
2022-10-19T18:56:12.721Z,15.52
2022-10-19T19:01:10.178Z,14.13
2022-10-19T19:03:38.881Z,11.38
2022-10-19T19:06:08.991Z,13.32
2022-10-19T19:08:36.234Z,13.68
2022-10-19T19:11:11.294Z,12.73
2022-10-19T19:13:39.148Z,12.05
2022-10-19T19:16:07.313Z,12.90
2022-10-19T19:18:34.903Z,13.00
2022-10-19T19:21:03.403Z,10.80
2022-10-19T19:23:31.021Z,10.40
2022-10-19T19:25:58.269Z,8.68
2022-10-19T19:28:25.669Z,8.95
2022-10-19T19:30:52.885Z,9.48
2022-10-19T19:33:20.135Z,8.57
2022-10-19T19:35:48.165Z,8.38
2022-10-19T19:38:16.527Z,8.45
2022-10-19T19:40:45.380Z,9.52
2022-10-19T19:43:14.367Z,9.48
2022-10-19T19:45:42.234Z,8.52
2022-10-19T19:48:10.617Z,8.27
2022-10-19T19:50:38.532Z,8.50
2022-10-19T19:53:05.879Z,8.27
2022-10-19T19:55:38.862Z,8.25
2022-10-19T19:58:06.757Z,7.63
2022-10-19T20:00:33.986Z,7.80
2022-10-19T20:03:01.219Z,8.02
2022-10-19T20:05:28.530Z,9.38
2022-10-19T20:07:55.901Z,7.90
2022-10-19T20:10:23.106Z,9.00
2022-10-19T20:12:50.323Z,9.43
2022-10-19T20:15:18.383Z,10.25
2022-10-19T20:17:45.783Z,8.38
2022-10-19T20:20:14.547Z,7.43
2022-10-19T20:22:46.635Z,6.88
2022-10-19T20:25:17.429Z,6.68
2022-10-19T20:27:44.635Z,5.75
2022-10-19T20:30:26.919Z,6.38
2022-10-19T20:32:54.997Z,5.60
2022-10-19T20:35:22.216Z,5.82
2022-10-19T20:37:52.860Z,6.50
2022-10-19T20:40:20.394Z,6.57
2022-10-19T20:42:48.321Z,5.82
2022-10-19T20:45:15.625Z,6.00
2022-10-19T20:47:43.215Z,6.20
2022-10-19T20:50:10.502Z,6.65
2022-10-19T20:52:38.578Z,6.45
2022-10-19T20:55:06.804Z,7.38
2022-10-19T20:57:34.041Z,7.50
2022-10-19T21:00:01.194Z,7.18
2022-10-19T21:02:28.446Z,6.97
2022-10-19T21:04:55.614Z,7.13
2022-10-19T21:07:22.838Z,6.68
2022-10-19T21:09:50.226Z,8.15
2022-10-19T21:12:17.394Z,7.90
2022-10-19T21:14:44.538Z,7.20
2022-10-19T21:17:11.743Z,7.53
2022-10-19T21:19:40.382Z,7.47
2022-10-19T21:22:10.875Z,7.40
2022-10-19T21:24:43.908Z,7.53
2022-10-19T21:27:12.069Z,7.72
2022-10-19T21:29:45.938Z,8.02
2022-10-19T21:32:15.272Z,7.60
2022-10-19T21:37:20.609Z,6.90
2022-10-19T21:39:48.024Z,7.65
2022-10-19T21:42:15.275Z,6.68
2022-10-19T21:44:42.419Z,6.88
2022-10-19T21:47:09.637Z,6.53
2022-10-19T21:49:36.771Z,6.70
2022-10-19T21:52:04.258Z,6.22
2022-10-19T21:54:31.927Z,6.63
2022-10-19T21:57:01.401Z,6.00
2022-10-19T21:59:28.660Z,6.15
2022-10-19T22:01:56.418Z,5.60
2022-10-19T22:04:24.917Z,6.05
2022-10-19T22:06:52.209Z,6.07
2022-10-19T22:09:21.233Z,5.30
2022-10-19T22:11:49.133Z,5.78
2022-10-19T22:14:17.245Z,6.15
2022-10-19T22:16:46.976Z,6.07
2022-10-19T22:19:24.650Z,6.45
2022-10-19T22:21:52.585Z,6.25
2022-10-19T22:24:32.220Z,6.00
2022-10-19T22:27:00.527Z,6.07
2022-10-19T22:29:27.663Z,5.28
2022-10-19T22:31:54.840Z,5.75
2022-10-19T22:34:22.238Z,5.20
2022-10-19T22:36:49.419Z,4.80
2022-10-19T22:39:16.777Z,5.43
2022-10-19T22:41:43.981Z,5.35
2022-10-19T22:44:11.181Z,5.18
2022-10-19T22:46:38.685Z,4.72
2022-10-19T22:49:06.030Z,4.65
2022-10-19T22:51:33.240Z,5.07
2022-10-19T22:54:00.503Z,5.15
2022-10-19T22:56:28.002Z,4.57
2022-10-19T22:59:01.943Z,4.57
2022-10-19T23:01:29.388Z,4.80
2022-10-19T23:03:56.758Z,4.50
2022-10-19T23:06:24.147Z,4.22
2022-10-19T23:08:51.376Z,4.43
2022-10-19T23:11:18.599Z,4.78
2022-10-19T23:13:45.777Z,4.10
2022-10-19T23:16:13.170Z,4.05
2022-10-19T23:18:41.261Z,4.53
2022-10-19T23:21:11.342Z,4.97
2022-10-19T23:23:39.288Z,4.35
2022-10-19T23:26:17.560Z,4.63
2022-10-19T23:28:47.046Z,4.63
2022-10-19T23:31:15.831Z,3.97
2022-10-19T23:33:43.606Z,4.53
2022-10-19T23:36:16.712Z,4.90
2022-10-19T23:38:45.008Z,4.35
2022-10-19T23:41:12.522Z,3.78
2022-10-19T23:43:40.269Z,4.20
2022-10-19T23:46:07.722Z,5.05
2022-10-19T23:48:35.507Z,4.20
2022-10-19T23:51:06.136Z,4.70
2022-10-19T23:53:37.049Z,5.55
2022-10-19T23:56:12.629Z,5.32
2022-10-19T23:58:39.779Z,5.05
